createdAt,value
2019-01-11T00:00:26.259Z,0.00
2019-01-11T00:01:26.250Z,0.00
2019-01-11T00:02:26.283Z,0.00
2019-01-11T00:03:26.229Z,0.00
2019-01-11T00:04:26.216Z,0.00
2019-01-11T00:05:26.206Z,0.00
2019-01-11T00:06:26.212Z,0.00
2019-01-11T00:07:26.178Z,0.00
2019-01-11T00:08:26.193Z,0.00
2019-01-11T00:09:26.160Z,0.00
2019-01-11T00:10:26.150Z,0.00
2019-01-11T00:11:26.142Z,0.00
2019-01-11T00:12:26.138Z,0.00
2019-01-11T00:13:26.133Z,0.00
2019-01-11T00:14:26.103Z,0.00
2019-01-11T00:15:26.101Z,0.00
2019-01-11T00:16:26.081Z,0.00
2019-01-11T00:17:26.087Z,0.00
2019-01-11T00:18:26.098Z,0.00
2019-01-11T00:19:26.063Z,0.00
2019-01-11T00:20:26.043Z,0.00
2019-01-11T00:21:26.029Z,0.00
2019-01-11T00:22:26.020Z,0.00
2019-01-11T00:23:26.052Z,0.00
2019-01-11T00:24:26.006Z,0.00
2019-01-11T00:25:26.012Z,0.00
2019-01-11T00:26:25.976Z,0.00
2019-01-11T00:27:25.968Z,0.00
2019-01-11T00:28:25.953Z,0.00
2019-01-11T00:29:25.966Z,0.00
2019-01-11T00:30:25.954Z,0.00
2019-01-11T00:31:25.927Z,0.00
2019-01-11T00:32:25.914Z,0.00
2019-01-11T00:33:25.898Z,0.00
2019-01-11T00:34:25.894Z,0.00
2019-01-11T00:35:25.902Z,0.00
2019-01-11T00:36:25.864Z,0.00
2019-01-11T00:37:25.858Z,0.00
2019-01-11T00:38:25.857Z,0.00
2019-01-11T00:39:25.847Z,0.00
2019-01-11T00:40:25.859Z,0.00
2019-01-11T00:41:25.822Z,0.00
2019-01-11T00:42:25.814Z,0.00
2019-01-11T00:43:25.791Z,0.00
2019-01-11T00:44:25.785Z,0.00
2019-01-11T00:45:25.808Z,0.00
2019-01-11T00:46:25.757Z,0.00
2019-01-11T00:47:25.757Z,0.00
2019-01-11T00:48:25.739Z,0.00
2019-01-11T00:49:25.746Z,0.00
2019-01-11T00:50:25.732Z,0.00
2019-01-11T00:51:25.735Z,0.00
2019-01-11T00:52:25.701Z,0.00
2019-01-11T00:53:25.696Z,0.00
2019-01-11T00:54:25.679Z,0.00
2019-01-11T00:55:25.668Z,0.00
2019-01-11T00:56:25.692Z,0.00
2019-01-11T00:57:25.665Z,0.00
2019-01-11T00:58:25.630Z,0.00
2019-01-11T00:59:25.629Z,0.00
2019-01-11T01:00:25.607Z,0.00
2019-01-11T01:01:25.645Z,0.00
2019-01-11T01:02:25.590Z,0.00
2019-01-11T01:03:25.594Z,0.00
2019-01-11T01:04:25.584Z,0.00
2019-01-11T01:05:25.567Z,0.00
2019-01-11T01:06:25.542Z,0.00
2019-01-11T01:07:25.535Z,0.00
2019-01-11T01:08:30.539Z,0.00
2019-01-11T01:09:26.514Z,0.00
2019-01-11T01:10:25.498Z,0.00
2019-01-11T01:11:25.513Z,0.00
2019-01-11T01:12:25.485Z,0.00
2019-01-11T01:13:25.472Z,0.00
2019-01-11T01:14:25.490Z,0.00
2019-01-11T01:15:25.445Z,0.00
2019-01-11T01:16:25.442Z,0.00
2019-01-11T01:17:25.447Z,0.00
2019-01-11T01:18:25.418Z,0.00
2019-01-11T01:19:25.411Z,0.00
2019-01-11T01:20:25.423Z,0.00
2019-01-11T01:21:25.380Z,0.00
2019-01-11T01:22:25.375Z,0.00
2019-01-11T01:23:25.374Z,0.00
2019-01-11T01:24:25.353Z,0.00
2019-01-11T01:25:25.347Z,0.00
2019-01-11T01:26:25.678Z,0.00
2019-01-11T01:27:25.320Z,0.00
2019-01-11T01:28:25.316Z,0.00
2019-01-11T01:29:25.339Z,0.00
2019-01-11T01:30:25.291Z,0.00
2019-01-11T01:31:25.282Z,0.00
2019-01-11T01:32:25.291Z,0.00
2019-01-11T01:33:25.270Z,0.00
2019-01-11T01:34:25.245Z,0.00
2019-01-11T01:35:25.249Z,0.00
2019-01-11T01:36:25.224Z,0.00
2019-01-11T01:37:25.225Z,0.00
2019-01-11T01:38:25.235Z,0.00
2019-01-11T01:39:25.206Z,0.00
2019-01-11T01:40:25.193Z,0.00
2019-01-11T01:41:25.169Z,0.00
2019-01-11T01:42:25.156Z,0.00
2019-01-11T01:43:25.157Z,0.00
2019-01-11T01:44:25.164Z,0.00
2019-01-11T01:45:25.121Z,0.00
2019-01-11T01:46:25.123Z,0.00
2019-01-11T01:47:25.133Z,0.00
2019-01-11T01:48:25.088Z,0.00
2019-01-11T01:49:26.702Z,0.00
2019-01-11T01:50:25.100Z,0.00
2019-01-11T01:51:25.068Z,0.00
2019-01-11T01:52:25.052Z,0.00
2019-01-11T01:53:25.044Z,0.00
2019-01-11T01:54:25.034Z,0.00
2019-01-11T01:55:25.022Z,0.00
2019-01-11T01:56:25.030Z,0.00
2019-01-11T01:57:24.992Z,0.00
2019-01-11T01:58:24.985Z,0.00
2019-01-11T01:59:24.984Z,0.00
2019-01-11T02:00:24.965Z,0.00
2019-01-11T02:01:24.954Z,0.00
2019-01-11T02:02:24.984Z,0.00
2019-01-11T02:03:24.938Z,0.00
2019-01-11T02:04:24.943Z,0.00
2019-01-11T02:05:24.968Z,0.00
2019-01-11T02:06:24.932Z,0.00
2019-01-11T02:07:24.889Z,0.00
2019-01-11T02:08:24.906Z,0.00
2019-01-11T02:09:24.871Z,0.00
2019-01-11T02:10:24.855Z,0.00
2019-01-11T02:11:24.846Z,0.00
2019-01-11T02:12:24.866Z,0.00
2019-01-11T02:13:24.827Z,0.00
2019-01-11T02:14:24.837Z,0.00
2019-01-11T02:15:24.806Z,0.00
2019-01-11T02:16:24.795Z,0.00
2019-01-11T02:17:24.783Z,0.00
2019-01-11T02:18:24.780Z,0.00
2019-01-11T02:19:24.799Z,0.00
2019-01-11T02:20:24.746Z,0.00
2019-01-11T02:21:24.744Z,0.00
2019-01-11T02:22:24.727Z,0.00
2019-01-11T02:23:24.721Z,0.00
2019-01-11T02:24:24.721Z,0.00
2019-01-11T02:25:24.723Z,0.00
2019-01-11T02:26:24.678Z,0.00
2019-01-11T02:27:24.684Z,0.00
2019-01-11T02:28:24.729Z,0.00
2019-01-11T02:29:24.656Z,0.00
2019-01-11T02:30:24.637Z,0.00
2019-01-11T02:31:24.649Z,0.00
2019-01-11T02:32:24.623Z,0.00
2019-01-11T02:33:25.136Z,0.00
2019-01-11T02:34:24.620Z,0.00
2019-01-11T02:35:24.591Z,0.00
2019-01-11T02:36:24.604Z,0.00
2019-01-11T02:37:24.570Z,0.00
2019-01-11T02:38:24.551Z,0.00
2019-01-11T02:39:24.547Z,0.00
2019-01-11T02:40:24.529Z,0.00
2019-01-11T02:41:24.524Z,0.00
2019-01-11T02:42:24.542Z,0.00
2019-01-11T02:43:24.509Z,0.00
2019-01-11T02:44:24.491Z,0.00
2019-01-11T02:45:24.483Z,0.00
2019-01-11T02:46:24.480Z,0.00
2019-01-11T02:47:24.458Z,0.00
2019-01-11T02:48:24.474Z,0.00
2019-01-11T02:49:24.432Z,0.00
2019-01-11T02:50:24.421Z,0.00
2019-01-11T02:51:24.415Z,0.00
2019-01-11T02:52:24.412Z,0.00
2019-01-11T02:53:24.389Z,0.00
2019-01-11T02:54:24.409Z,0.00
2019-01-11T02:55:24.373Z,0.00
2019-01-11T02:56:24.364Z,0.00
2019-01-11T02:57:24.355Z,0.00
2019-01-11T02:58:24.353Z,0.00
2019-01-11T02:59:24.332Z,0.00
2019-01-11T03:00:24.330Z,0.00
2019-01-11T03:01:24.311Z,0.00
2019-01-11T03:02:24.301Z,0.00
2019-01-11T03:03:24.286Z,0.00
2019-01-11T03:04:24.305Z,0.00
2019-01-11T03:05:25.398Z,0.00
2019-01-11T03:06:24.253Z,0.00
2019-01-11T03:07:24.242Z,0.00
2019-01-11T03:08:24.237Z,0.00
2019-01-11T03:09:24.223Z,0.00
2019-01-11T03:10:24.235Z,0.00
2019-01-11T03:11:24.227Z,0.00
2019-01-11T03:12:24.194Z,0.00
2019-01-11T03:13:24.186Z,0.00
2019-01-11T03:14:24.165Z,0.00
2019-01-11T03:15:24.180Z,0.00
2019-01-11T03:16:24.154Z,0.00
2019-01-11T03:17:24.139Z,0.00
2019-01-11T03:18:24.130Z,0.00
2019-01-11T03:19:24.124Z,0.00
2019-01-11T03:20:24.112Z,0.00
2019-01-11T03:21:24.124Z,0.00
2019-01-11T03:22:24.099Z,0.00
2019-01-11T03:23:24.077Z,0.00
2019-01-11T03:24:24.069Z,0.00
2019-01-11T03:25:24.066Z,0.00
2019-01-11T03:26:24.048Z,0.00
2019-01-11T03:27:24.052Z,0.00
2019-01-11T03:28:24.019Z,0.00
2019-01-11T03:29:24.017Z,0.00
2019-01-11T03:30:24.006Z,0.00
2019-01-11T03:31:23.989Z,0.00
2019-01-11T03:32:23.981Z,0.00
2019-01-11T03:33:24.003Z,0.00
2019-01-11T03:34:23.974Z,0.00
2019-01-11T03:35:23.951Z,0.00
2019-01-11T03:36:23.936Z,0.00
2019-01-11T03:37:23.926Z,0.00
2019-01-11T03:38:23.919Z,0.00
2019-01-11T03:39:23.929Z,0.00
2019-01-11T03:40:23.893Z,0.00
2019-01-11T03:41:23.884Z,0.00
2019-01-11T03:42:23.868Z,0.00
2019-01-11T03:43:23.864Z,0.00
2019-01-11T03:44:23.849Z,0.00
2019-01-11T03:45:23.866Z,0.00
2019-01-11T03:46:23.822Z,0.00
2019-01-11T03:47:23.816Z,0.00
2019-01-11T03:48:23.827Z,0.00
2019-01-11T03:49:23.799Z,0.00
2019-01-11T03:50:23.782Z,0.00
2019-01-11T03:51:23.806Z,0.00
2019-01-11T03:52:23.766Z,0.00
2019-01-11T03:53:23.749Z,0.00
2019-01-11T03:54:23.743Z,0.00
2019-01-11T03:55:23.739Z,0.00
2019-01-11T03:56:23.736Z,0.00
2019-01-11T03:57:23.711Z,0.00
2019-01-11T03:58:23.699Z,0.00
2019-01-11T03:59:23.699Z,0.00
2019-01-11T04:00:23.679Z,0.00
2019-01-11T04:01:23.688Z,0.00
2019-01-11T04:02:23.667Z,0.00
2019-01-11T04:03:23.645Z,0.00
2019-01-11T04:04:23.640Z,0.00
2019-01-11T04:05:23.632Z,0.00
2019-01-11T04:06:23.651Z,0.00
2019-01-11T04:07:23.616Z,0.00
2019-01-11T04:08:23.603Z,0.00
2019-01-11T04:09:23.601Z,0.00
2019-01-11T04:10:23.566Z,0.00
2019-01-11T04:11:23.555Z,0.00
2019-01-11T04:12:23.575Z,0.00
2019-01-11T04:13:30.350Z,0.00
2019-01-11T04:14:24.529Z,0.00
2019-01-11T04:15:23.530Z,0.00
2019-01-11T04:16:23.502Z,0.00
2019-01-11T04:17:23.501Z,0.00
2019-01-11T04:18:23.515Z,0.00
2019-01-11T04:19:23.476Z,0.00
2019-01-11T04:20:23.457Z,0.00
2019-01-11T04:21:23.458Z,0.00
2019-01-11T04:22:23.443Z,0.00
2019-01-11T04:23:23.423Z,0.00
2019-01-11T04:24:23.431Z,0.00
2019-01-11T04:25:23.403Z,0.00
2019-01-11T04:26:23.399Z,0.00
2019-01-11T04:27:23.382Z,0.00
2019-01-11T04:28:23.382Z,0.00
2019-01-11T04:29:23.398Z,0.00
2019-01-11T04:30:23.370Z,0.00
2019-01-11T04:31:23.362Z,0.00
2019-01-11T04:32:23.338Z,0.00
2019-01-11T04:33:23.319Z,0.00
2019-01-11T04:34:23.307Z,0.00
2019-01-11T04:35:23.327Z,0.00
2019-01-11T04:36:23.298Z,0.00
2019-01-11T04:37:23.296Z,0.00
2019-01-11T04:38:23.288Z,0.00
2019-01-11T04:39:23.261Z,0.00
2019-01-11T04:40:23.268Z,0.00
2019-01-11T04:41:23.260Z,0.00
2019-01-11T04:42:23.233Z,0.00
2019-01-11T04:43:23.215Z,0.00
2019-01-11T04:44:23.203Z,0.00
2019-01-11T04:45:23.205Z,0.00
2019-01-11T04:46:23.196Z,0.00
2019-01-11T04:47:23.168Z,0.00
2019-01-11T04:48:23.168Z,0.00
2019-01-11T04:49:23.161Z,0.00
2019-01-11T04:50:23.148Z,0.00
2019-01-11T04:51:23.164Z,0.00
2019-01-11T04:52:23.124Z,0.00
2019-01-11T04:53:23.116Z,0.00
2019-01-11T04:54:23.139Z,0.00
2019-01-11T04:55:23.095Z,0.00
2019-01-11T04:56:23.074Z,0.00
2019-01-11T04:57:23.081Z,0.00
2019-01-11T04:58:23.055Z,0.00
2019-01-11T04:59:23.043Z,0.00
2019-01-11T05:00:23.037Z,0.00
2019-01-11T05:01:23.023Z,0.00
2019-01-11T05:02:23.039Z,0.00
2019-01-11T05:03:23.019Z,0.00
2019-01-11T05:04:23.004Z,0.00
2019-01-11T05:05:22.977Z,0.00
2019-01-11T05:06:22.982Z,0.00
2019-01-11T05:07:22.976Z,0.00
2019-01-11T05:08:22.960Z,0.00
2019-01-11T05:09:22.967Z,0.00
2019-01-11T05:10:22.939Z,0.00
2019-01-11T05:11:22.925Z,0.00
2019-01-11T05:12:22.933Z,0.00
2019-01-11T05:13:22.899Z,0.00
2019-01-11T05:14:22.904Z,0.00
2019-01-11T05:15:22.890Z,0.00
2019-01-11T05:16:22.868Z,0.00
2019-01-11T05:17:22.922Z,0.00
2019-01-11T05:18:22.846Z,0.00
2019-01-11T05:19:22.832Z,0.00
2019-01-11T05:20:22.837Z,0.00
2019-01-11T05:21:22.837Z,0.00
2019-01-11T05:22:22.835Z,0.00
2019-01-11T05:23:22.813Z,0.00
2019-01-11T05:24:22.781Z,0.00
2019-01-11T05:25:22.769Z,0.00
2019-01-11T05:26:22.761Z,4.00
2019-01-11T05:27:22.760Z,4.00
2019-01-11T05:28:22.769Z,0.00
2019-01-11T05:29:22.739Z,0.00
2019-01-11T05:30:22.724Z,0.00
2019-01-11T05:31:22.719Z,0.00
2019-01-11T05:32:22.707Z,0.00
2019-01-11T05:33:22.749Z,0.00
2019-01-11T05:34:22.733Z,0.00
2019-01-11T05:35:22.680Z,0.00
2019-01-11T05:36:22.665Z,0.00
2019-01-11T05:37:22.656Z,0.00
2019-01-11T05:38:22.641Z,0.00
2019-01-11T05:39:22.638Z,0.00
2019-01-11T05:40:22.660Z,0.00
2019-01-11T05:41:22.676Z,0.00
2019-01-11T05:42:22.623Z,0.00
2019-01-11T05:43:22.598Z,0.00
2019-01-11T05:44:22.580Z,0.00
2019-01-11T05:45:22.591Z,0.00
2019-01-11T05:46:22.557Z,0.00
2019-01-11T05:47:22.557Z,0.00
2019-01-11T05:48:22.538Z,0.00
2019-01-11T05:49:22.525Z,0.00
2019-01-11T05:50:24.371Z,0.00
2019-01-11T05:51:22.525Z,0.00
2019-01-11T05:52:22.501Z,0.00
2019-01-11T05:53:22.493Z,0.00
2019-01-11T05:54:22.472Z,0.00
2019-01-11T05:55:22.457Z,0.00
2019-01-11T05:56:22.447Z,0.00
2019-01-11T05:57:22.454Z,0.00
2019-01-11T05:58:22.448Z,0.00
2019-01-11T05:59:22.441Z,0.00
2019-01-11T06:00:22.406Z,0.00
2019-01-11T06:01:22.400Z,0.00
2019-01-11T06:02:22.410Z,0.00
2019-01-11T06:03:22.387Z,0.00
2019-01-11T06:04:22.370Z,0.00
2019-01-11T06:05:22.358Z,0.00
2019-01-11T06:06:22.340Z,0.00
2019-01-11T06:07:22.341Z,0.00
2019-01-11T06:08:22.350Z,0.00
2019-01-11T06:09:22.308Z,0.00
2019-01-11T06:10:22.299Z,0.00
2019-01-11T06:11:22.301Z,0.00
2019-01-11T06:12:22.288Z,0.00
2019-01-11T06:13:22.281Z,4.00
2019-01-11T06:14:22.282Z,4.00
2019-01-11T06:15:22.258Z,0.00
2019-01-11T06:16:22.243Z,0.00
2019-01-11T06:17:22.237Z,0.00
2019-01-11T06:18:22.265Z,0.00
2019-01-11T06:19:22.213Z,0.00
2019-01-11T06:20:22.218Z,0.00
2019-01-11T06:21:22.188Z,0.00
2019-01-11T06:22:22.175Z,0.00
2019-01-11T06:23:22.167Z,0.00
2019-01-11T06:24:22.164Z,0.00
2019-01-11T06:25:22.153Z,0.00
2019-01-11T06:26:22.164Z,0.00
2019-01-11T06:27:22.134Z,0.00
2019-01-11T06:28:22.110Z,0.00
2019-01-11T06:29:22.105Z,0.00
2019-01-11T06:30:22.132Z,0.00
2019-01-11T06:31:22.079Z,0.00
2019-01-11T06:32:22.068Z,0.00
2019-01-11T06:33:22.064Z,0.00
2019-01-11T06:34:22.058Z,0.00
2019-01-11T06:35:22.043Z,0.00
2019-01-11T06:36:22.071Z,0.00
2019-01-11T06:37:22.023Z,0.00
2019-01-11T06:38:22.011Z,0.00
2019-01-11T06:39:22.007Z,0.00
2019-01-11T06:40:21.997Z,0.00
2019-01-11T06:41:21.979Z,0.00
2019-01-11T06:42:21.993Z,0.00
2019-01-11T06:43:21.957Z,0.00
2019-01-11T06:44:22.064Z,0.00
2019-01-11T06:45:21.954Z,0.00
2019-01-11T06:46:21.923Z,0.00
2019-01-11T06:47:21.953Z,0.00
2019-01-11T06:48:21.932Z,0.00
2019-01-11T06:49:21.888Z,0.00
2019-01-11T06:50:21.885Z,0.00
2019-01-11T06:51:21.886Z,0.00
2019-01-11T06:52:21.880Z,0.00
2019-01-11T06:53:21.865Z,0.00
2019-01-11T06:54:21.877Z,0.00
2019-01-11T06:55:21.832Z,0.00
2019-01-11T06:56:21.837Z,0.00
2019-01-11T06:57:21.814Z,0.00
2019-01-11T06:58:21.805Z,0.00
2019-01-11T06:59:21.827Z,0.00
2019-01-11T07:00:21.780Z,0.00
2019-01-11T07:01:21.764Z,0.00
2019-01-11T07:02:22.410Z,0.00
2019-01-11T07:03:21.867Z,0.00
2019-01-11T07:04:21.732Z,0.00
2019-01-11T07:05:21.755Z,0.00
2019-01-11T07:06:21.750Z,0.00
2019-01-11T07:07:21.701Z,0.00
2019-01-11T07:08:21.708Z,0.00
2019-01-11T07:09:21.776Z,0.00
2019-01-11T07:10:21.701Z,0.00
2019-01-11T07:11:21.670Z,0.00
2019-01-11T07:12:21.658Z,0.00
2019-01-11T07:13:21.636Z,0.00
2019-01-11T07:14:21.632Z,4.00
2019-01-11T07:15:21.630Z,4.00
2019-01-11T07:16:21.665Z,0.00
2019-01-11T07:17:21.603Z,4.00
2019-01-11T07:18:21.638Z,4.00
2019-01-11T07:19:21.576Z,4.00
2019-01-11T07:20:21.577Z,4.00
2019-01-11T07:21:21.571Z,8.00
2019-01-11T07:22:21.578Z,8.00
2019-01-11T07:23:21.535Z,8.00
2019-01-11T07:24:21.527Z,8.00
2019-01-11T07:25:21.519Z,12.00
2019-01-11T07:26:21.507Z,12.00
2019-01-11T07:27:21.514Z,12.00
2019-01-11T07:28:21.612Z,12.00
2019-01-11T07:29:21.488Z,16.00
2019-01-11T07:30:21.465Z,16.00
2019-01-11T07:31:21.465Z,16.00
2019-01-11T07:32:21.440Z,16.00
2019-01-11T07:33:21.455Z,16.00
2019-01-11T07:34:21.418Z,20.00
2019-01-11T07:35:21.412Z,20.00
2019-01-11T07:36:21.419Z,24.00
2019-01-11T07:37:21.389Z,20.00
2019-01-11T07:38:21.411Z,24.00
2019-01-11T07:39:21.389Z,32.00
2019-01-11T07:40:21.363Z,32.00
2019-01-11T07:41:21.358Z,36.00
2019-01-11T07:42:21.342Z,28.00
2019-01-11T07:43:21.331Z,32.00
2019-01-11T07:44:21.357Z,32.00
2019-01-11T07:45:21.303Z,32.00
2019-01-11T07:46:21.296Z,32.00
2019-01-11T07:47:21.283Z,52.00
2019-01-11T07:48:21.283Z,52.00
2019-01-11T07:49:23.301Z,56.00
2019-01-11T07:50:21.272Z,72.00
2019-01-11T07:51:21.244Z,60.00
2019-01-11T07:52:21.233Z,68.00
2019-01-11T07:53:21.229Z,64.00
2019-01-11T07:54:21.261Z,56.00
2019-01-11T07:55:21.212Z,56.00
2019-01-11T07:56:21.196Z,56.00
2019-01-11T07:57:21.187Z,68.00
2019-01-11T07:58:21.181Z,76.00
2019-01-11T07:59:21.177Z,76.00
2019-01-11T08:00:21.185Z,92.00
2019-01-11T08:01:21.177Z,76.00
2019-01-11T08:02:21.140Z,84.00
2019-01-11T08:03:21.126Z,76.00
2019-01-11T08:04:21.126Z,104.00
2019-01-11T08:05:21.113Z,120.00
2019-01-11T08:06:21.132Z,152.00
2019-01-11T08:07:21.085Z,172.00
2019-01-11T08:08:21.087Z,180.00
2019-01-11T08:09:21.072Z,168.00
2019-01-11T08:10:21.057Z,240.00
2019-01-11T08:11:21.039Z,260.00
2019-01-11T08:12:21.066Z,240.00
2019-01-11T08:13:21.024Z,268.00
2019-01-11T08:14:21.059Z,224.00
2019-01-11T08:15:21.001Z,244.00
2019-01-11T08:16:20.994Z,236.00
2019-01-11T08:17:20.984Z,260.00
2019-01-11T08:18:20.982Z,304.00
2019-01-11T08:19:20.959Z,332.00
2019-01-11T08:20:20.966Z,344.00
2019-01-11T08:21:20.948Z,468.00
2019-01-11T08:22:20.929Z,392.00
2019-01-11T08:23:20.946Z,488.00
2019-01-11T08:24:20.912Z,452.00
2019-01-11T08:25:20.901Z,356.00
2019-01-11T08:26:20.898Z,460.00
2019-01-11T08:27:20.879Z,448.00
2019-01-11T08:28:20.866Z,556.00
2019-01-11T08:29:20.948Z,512.00
2019-01-11T08:30:20.939Z,416.00
2019-01-11T08:31:22.111Z,448.00
2019-01-11T08:32:20.829Z,560.00
2019-01-11T08:33:20.822Z,452.00
2019-01-11T08:34:20.810Z,464.00
2019-01-11T08:35:20.818Z,416.00
2019-01-11T08:36:20.790Z,352.00
2019-01-11T08:37:20.780Z,508.00
2019-01-11T08:38:20.771Z,532.00
2019-01-11T08:39:20.749Z,576.00
2019-01-11T08:40:20.755Z,700.00
2019-01-11T08:41:20.729Z,760.00
2019-01-11T08:42:20.719Z,772.00
2019-01-11T08:43:20.713Z,576.00
2019-01-11T08:44:20.707Z,772.00
2019-01-11T08:45:20.734Z,756.00
2019-01-11T08:46:20.680Z,944.00
2019-01-11T08:47:20.671Z,852.00
2019-01-11T08:48:20.660Z,992.00
2019-01-11T08:49:20.657Z,904.00
2019-01-11T08:50:20.642Z,1104.00
2019-01-11T08:51:20.646Z,1080.00
2019-01-11T08:52:20.617Z,964.00
2019-01-11T08:53:20.637Z,892.00
2019-01-11T08:54:20.598Z,1060.00
2019-01-11T08:55:20.587Z,1088.00
2019-01-11T08:56:20.600Z,1056.00
2019-01-11T08:57:20.557Z,1016.00
2019-01-11T08:58:20.556Z,840.00
2019-01-11T08:59:20.535Z,676.00
2019-01-11T09:00:20.529Z,892.00
2019-01-11T09:01:20.538Z,744.00
2019-01-11T09:02:20.558Z,608.00
2019-01-11T09:03:20.501Z,588.00
2019-01-11T09:04:20.490Z,644.00
2019-01-11T09:05:20.499Z,596.00
2019-01-11T09:06:20.475Z,564.00
2019-01-11T09:07:20.452Z,588.00
2019-01-11T09:08:20.446Z,548.00
2019-01-11T09:09:20.441Z,556.00
2019-01-11T09:10:22.977Z,568.00
2019-01-11T09:11:20.438Z,572.00
2019-01-11T09:12:20.398Z,684.00
2019-01-11T09:13:20.392Z,688.00
2019-01-11T09:14:20.392Z,760.00
2019-01-11T09:15:20.375Z,552.00
2019-01-11T09:16:20.713Z,640.00
2019-01-11T09:17:20.345Z,732.00
2019-01-11T09:18:20.343Z,580.00
2019-01-11T09:19:20.325Z,684.00
2019-01-11T09:20:20.355Z,600.00
2019-01-11T09:21:20.320Z,652.00
2019-01-11T09:22:20.344Z,716.00
2019-01-11T09:23:20.290Z,876.00
2019-01-11T09:24:20.312Z,760.00
2019-01-11T09:25:20.277Z,716.00
2019-01-11T09:26:20.268Z,752.00
2019-01-11T09:27:20.239Z,816.00
2019-01-11T09:28:20.254Z,980.00
2019-01-11T09:29:20.225Z,892.00
2019-01-11T09:30:20.226Z,900.00
2019-01-11T09:31:20.198Z,888.00
2019-01-11T09:32:20.191Z,1308.00
2019-01-11T09:33:20.876Z,1092.00
2019-01-11T09:34:20.184Z,1016.00
2019-01-11T09:35:20.196Z,1148.00
2019-01-11T09:36:20.157Z,1064.00
2019-01-11T09:37:20.151Z,1136.00
2019-01-11T09:38:20.163Z,984.00
2019-01-11T09:39:20.158Z,964.00
2019-01-11T09:40:20.101Z,1148.00
2019-01-11T09:41:20.094Z,1284.00
2019-01-11T09:42:20.085Z,1148.00
2019-01-11T09:43:20.094Z,1228.00
2019-01-11T09:44:20.070Z,1112.00
2019-01-11T09:45:20.083Z,1112.00
2019-01-11T09:46:20.129Z,972.00
2019-01-11T09:47:20.035Z,848.00
2019-01-11T09:48:20.043Z,848.00
2019-01-11T09:49:20.013Z,848.00
2019-01-11T09:50:20.026Z,808.00
2019-01-11T09:51:19.987Z,812.00
2019-01-11T09:52:19.984Z,724.00
2019-01-11T09:53:19.977Z,832.00
2019-01-11T09:54:19.966Z,784.00
2019-01-11T09:55:19.952Z,848.00
2019-01-11T09:56:19.951Z,668.00
2019-01-11T09:57:19.925Z,772.00
2019-01-11T09:58:19.914Z,744.00
2019-01-11T09:59:19.907Z,896.00
2019-01-11T10:00:19.901Z,896.00
2019-01-11T10:01:19.919Z,864.00
2019-01-11T10:02:19.879Z,668.00
2019-01-11T10:03:19.865Z,640.00
2019-01-11T10:04:19.859Z,944.00
2019-01-11T10:05:19.843Z,1140.00
2019-01-11T10:06:19.835Z,904.00
2019-01-11T10:07:19.853Z,856.00
2019-01-11T10:08:19.814Z,924.00
2019-01-11T10:09:19.817Z,1080.00
2019-01-11T10:10:19.788Z,1588.00
2019-01-11T10:11:19.785Z,1344.00
2019-01-11T10:12:19.793Z,1012.00
2019-01-11T10:13:19.760Z,1092.00
2019-01-11T10:14:19.749Z,1176.00
2019-01-11T10:15:19.828Z,1112.00
2019-01-11T10:16:19.732Z,1052.00
2019-01-11T10:17:19.729Z,1204.00
2019-01-11T10:18:19.729Z,1176.00
2019-01-11T10:19:19.693Z,1448.00
2019-01-11T10:20:19.687Z,1368.00
2019-01-11T10:21:22.503Z,1212.00
2019-01-11T10:22:19.670Z,1544.00
2019-01-11T10:23:19.655Z,2016.00
2019-01-11T10:24:19.672Z,1980.00
2019-01-11T10:25:19.635Z,1564.00
2019-01-11T10:26:19.613Z,1640.00
2019-01-11T10:27:19.619Z,1580.00
2019-01-11T10:28:19.605Z,1836.00
2019-01-11T10:29:19.595Z,1804.00
2019-01-11T10:30:19.618Z,2248.00
2019-01-11T10:31:19.571Z,1108.00
2019-01-11T10:32:19.606Z,1136.00
2019-01-11T10:33:19.548Z,1248.00
2019-01-11T10:34:19.532Z,2108.00
2019-01-11T10:35:19.529Z,2716.00
2019-01-11T10:36:19.552Z,1800.00
2019-01-11T10:37:19.499Z,1740.00
2019-01-11T10:38:19.487Z,1356.00
2019-01-11T10:39:19.479Z,1820.00
2019-01-11T10:40:19.525Z,1844.00
2019-01-11T10:41:19.457Z,1852.00
2019-01-11T10:42:19.468Z,1980.00
2019-01-11T10:43:19.439Z,1948.00
2019-01-11T10:44:19.430Z,2056.00
2019-01-11T10:45:19.412Z,1712.00
2019-01-11T10:46:19.404Z,1644.00
2019-01-11T10:47:19.415Z,2148.00
2019-01-11T10:48:19.389Z,2280.00
2019-01-11T10:49:19.388Z,2608.00
2019-01-11T10:50:19.364Z,2640.00
2019-01-11T10:51:19.366Z,2312.00
2019-01-11T10:52:19.390Z,1760.00
2019-01-11T10:53:19.331Z,1408.00
2019-01-11T10:54:19.324Z,1244.00
2019-01-11T10:55:19.309Z,1732.00
2019-01-11T10:56:19.303Z,1860.00
2019-01-11T10:57:19.298Z,1976.00
2019-01-11T10:58:19.288Z,1960.00
2019-01-11T10:59:19.264Z,1984.00
2019-01-11T11:00:19.255Z,2456.00
2019-01-11T11:01:19.237Z,1928.00
2019-01-11T11:02:19.250Z,2212.00
2019-01-11T11:03:19.231Z,2360.00
2019-01-11T11:04:19.216Z,1556.00
2019-01-11T11:05:19.197Z,1464.00
2019-01-11T11:06:19.187Z,1208.00
2019-01-11T11:07:19.188Z,1028.00
2019-01-11T11:08:19.169Z,1260.00
2019-01-11T11:09:19.153Z,1092.00
2019-01-11T11:10:19.154Z,1484.00
2019-01-11T11:11:19.138Z,1712.00
2019-01-11T11:12:19.143Z,1756.00
2019-01-11T11:13:19.115Z,2132.00
2019-01-11T11:14:19.111Z,2336.00
2019-01-11T11:15:19.089Z,1972.00
2019-01-11T11:16:19.159Z,1692.00
2019-01-11T11:17:19.092Z,1924.00
2019-01-11T11:18:19.054Z,2204.00
2019-01-11T11:19:19.054Z,2364.00
2019-01-11T11:20:19.037Z,1980.00
2019-01-11T11:21:19.031Z,1596.00
2019-01-11T11:22:19.040Z,1464.00
2019-01-11T11:23:19.009Z,1420.00
2019-01-11T11:24:18.997Z,1696.00
2019-01-11T11:25:18.989Z,2228.00
2019-01-11T11:26:18.969Z,2068.00
2019-01-11T11:27:18.964Z,2104.00
2019-01-11T11:28:19.003Z,2080.00
2019-01-11T11:29:18.942Z,2220.00
2019-01-11T11:30:18.929Z,2388.00
2019-01-11T11:31:18.924Z,2576.00
2019-01-11T11:32:18.913Z,1908.00
2019-01-11T11:33:18.903Z,1596.00
2019-01-11T11:34:18.917Z,2668.00
2019-01-11T11:35:18.871Z,2692.00
2019-01-11T11:36:18.862Z,2644.00
2019-01-11T11:37:18.862Z,3056.00
2019-01-11T11:38:18.844Z,3316.00
2019-01-11T11:39:18.855Z,2860.00
2019-01-11T11:40:18.842Z,2636.00
2019-01-11T11:41:18.831Z,2288.00
2019-01-11T11:42:18.820Z,2652.00
2019-01-11T11:43:18.784Z,1884.00
2019-01-11T11:44:18.780Z,2704.00
2019-01-11T11:45:18.784Z,3192.00
2019-01-11T11:46:18.823Z,2312.00
2019-01-11T11:47:18.775Z,2516.00
2019-01-11T11:48:18.731Z,2544.00
2019-01-11T11:49:18.720Z,2792.00
2019-01-11T11:50:18.713Z,2060.00
2019-01-11T11:51:18.712Z,1836.00
2019-01-11T11:52:18.725Z,2100.00
2019-01-11T11:53:18.680Z,2280.00
2019-01-11T11:54:18.673Z,2292.00
2019-01-11T11:55:18.657Z,1768.00
2019-01-11T11:56:18.649Z,2460.00
2019-01-11T11:57:18.637Z,1832.00
2019-01-11T11:58:18.638Z,1508.00
2019-01-11T11:59:18.629Z,1428.00
2019-01-11T12:00:18.610Z,1524.00
2019-01-11T12:01:18.600Z,1384.00
2019-01-11T12:02:19.430Z,1364.00
2019-01-11T12:03:18.591Z,1672.00
2019-01-11T12:04:18.556Z,1368.00
2019-01-11T12:05:18.548Z,1332.00
2019-01-11T12:06:18.543Z,1380.00
2019-01-11T12:07:18.534Z,1180.00
2019-01-11T12:08:18.520Z,1304.00
2019-01-11T12:09:18.536Z,1052.00
2019-01-11T12:10:18.497Z,1228.00
2019-01-11T12:11:18.491Z,1276.00
2019-01-11T12:12:18.485Z,1172.00
2019-01-11T12:13:18.483Z,1632.00
2019-01-11T12:14:18.476Z,1208.00
2019-01-11T12:15:18.473Z,1252.00
2019-01-11T12:16:18.443Z,1408.00
2019-01-11T12:17:18.419Z,1708.00
2019-01-11T12:18:18.406Z,2084.00
2019-01-11T12:19:18.402Z,1668.00
2019-01-11T12:20:18.390Z,1616.00
2019-01-11T12:21:18.402Z,1624.00
2019-01-11T12:22:18.372Z,1640.00
2019-01-11T12:23:18.365Z,1756.00
2019-01-11T12:24:18.343Z,1852.00
2019-01-11T12:25:18.341Z,2088.00
2019-01-11T12:26:18.367Z,2376.00
2019-01-11T12:27:18.313Z,2780.00
2019-01-11T12:28:18.332Z,2832.00
2019-01-11T12:29:18.298Z,3140.00
2019-01-11T12:30:18.293Z,2680.00
2019-01-11T12:31:18.288Z,2460.00
2019-01-11T12:32:19.706Z,2408.00
2019-01-11T12:33:18.258Z,2516.00
2019-01-11T12:34:18.240Z,2008.00
2019-01-11T12:35:18.235Z,1864.00
2019-01-11T12:36:18.225Z,2040.00
2019-01-11T12:37:18.203Z,1856.00
2019-01-11T12:38:18.240Z,2016.00
2019-01-11T12:39:18.185Z,1832.00
2019-01-11T12:40:18.178Z,2448.00
2019-01-11T12:41:18.159Z,2044.00
2019-01-11T12:42:18.162Z,2276.00
2019-01-11T12:43:18.148Z,2420.00
2019-01-11T12:44:18.181Z,2512.00
2019-01-11T12:45:18.123Z,2828.00
2019-01-11T12:46:18.164Z,2680.00
2019-01-11T12:47:18.128Z,2820.00
2019-01-11T12:48:18.091Z,2940.00
2019-01-11T12:49:18.079Z,2708.00
2019-01-11T12:50:18.124Z,2924.00
2019-01-11T12:51:18.062Z,2776.00